Time;durP1;ratioP1;P1;durP2;ratioP2;P2;SDS_P1;SDS_P2;PMS_P1;PMS_P2;Temp;Humidity;BMP_temperature;BMP_pressure;BME280_temperature;BME280_humidity;BME280_pressure;Samples;Min_cycle;Max_cycle;Signal;HPM_P1;HPM_P2
2022/02/21 00:02:08;;;;;;;2.38;0.63;;;10.00;99.90;;;;;;5052528;28;20025;-83
2022/02/21 00:04:34;;;;;;;4.50;0.88;;;10.00;99.90;;;;;;5052345;28;20036;-83
2022/02/21 00:07:01;;;;;;;5.60;0.73;;;10.00;99.90;;;;;;5052932;28;20033;-82
2022/02/21 00:09:26;;;;;;;4.32;0.70;;;10.00;99.90;;;;;;5052517;28;20033;-82
2022/02/21 00:11:52;;;;;;;2.90;0.60;;;10.00;99.90;;;;;;5052788;28;20033;-84
2022/02/21 00:14:17;;;;;;;4.80;0.85;;;10.00;99.90;;;;;;5052373;28;20041;-83
2022/02/21 00:16:43;;;;;;;3.38;0.70;;;10.00;99.90;;;;;;5053470;28;20056;-83
2022/02/21 00:19:09;;;;;;;3.40;0.70;;;10.00;99.90;;;;;;5056543;28;20043;-80
2022/02/21 00:21:35;;;;;;;2.30;0.60;;;10.10;99.90;;;;;;5065117;28;20027;-84
2022/02/21 00:24:00;;;;;;;2.40;0.40;;;10.10;99.90;;;;;;5075578;28;20083;-83
2022/02/21 00:26:26;;;;;;;2.42;0.60;;;10.20;99.90;;;;;;5063650;28;20416;-82
2022/02/21 00:28:52;;;;;;;4.22;0.55;;;10.20;99.90;;;;;;5061036;28;20496;-84
2022/02/21 00:31:17;;;;;;;4.22;0.80;;;10.20;99.90;;;;;;5053794;28;20025;-82
2022/02/21 00:33:43;;;;;;;5.15;0.70;;;10.20;99.90;;;;;;5052782;28;20112;-81
2022/02/21 00:36:09;;;;;;;3.90;0.80;;;10.20;99.90;;;;;;5052285;28;20462;-81
2022/02/21 00:38:34;;;;;;;4.93;0.70;;;10.20;99.90;;;;;;5055730;28;20035;-82
2022/02/21 00:41:01;;;;;;;1.70;0.50;;;10.20;99.90;;;;;;5056520;28;20095;-82
2022/02/21 00:43:27;;;;;;;4.53;0.98;;;10.20;99.90;;;;;;5055439;28;20033;-83
2022/02/21 00:45:53;;;;;;;4.85;0.70;;;10.10;99.90;;;;;;5059110;28;20086;-81
2022/02/21 00:48:18;;;;;;;3.00;0.80;;;10.10;99.90;;;;;;5055567;28;20064;-82
2022/02/21 00:50:44;;;;;;;4.00;0.75;;;10.10;99.90;;;;;;5056670;28;20024;-83
2022/02/21 00:53:10;;;;;;;4.53;0.90;;;10.10;99.90;;;;;;5056097;28;20458;-82
2022/02/21 00:55:36;;;;;;;3.33;0.88;;;10.00;99.90;;;;;;5055611;28;20025;-82
2022/02/21 00:58:03;;;;;;;2.50;0.73;;;9.90;99.90;;;;;;5055591;28;20139;-82
2022/02/21 01:00:30;;;;;;;2.15;0.82;;;9.80;99.90;;;;;;5056021;28;20029;-81
2022/02/21 01:02:56;;;;;;;4.85;1.30;;;9.70;99.90;;;;;;5056207;28;20025;-82
2022/02/21 01:05:21;;;;;;;4.28;0.60;;;9.70;99.90;;;;;;5055374;28;20025;-81
2022/02/21 01:07:47;;;;;;;5.82;0.93;;;9.60;99.90;;;;;;5056154;28;20400;-81
2022/02/21 01:10:13;;;;;;;3.58;0.90;;;9.60;99.90;;;;;;5056017;28;20033;-81
2022/02/21 01:12:38;;;;;;;7.05;1.05;;;9.60;99.90;;;;;;5055477;28;20021;-81
2022/02/21 01:15:06;;;;;;;6.38;1.17;;;9.60;99.90;;;;;;5055718;28;20037;-82
2022/02/21 01:17:32;;;;;;;1.92;0.45;;;9.60;99.90;;;;;;5055317;28;20033;-81
2022/02/21 01:19:59;;;;;;;4.88;0.90;;;9.60;99.90;;;;;;5055766;28;20470;-81
2022/02/21 01:22:25;;;;;;;2.92;0.57;;;9.60;99.90;;;;;;5055110;28;20024;-82
2022/02/21 01:24:51;;;;;;;4.60;0.77;;;9.60;99.90;;;;;;5058051;28;20032;-80
2022/02/21 01:27:17;;;;;;;5.15;0.98;;;9.60;99.90;;;;;;5063563;28;20286;-79
2022/02/21 01:29:43;;;;;;;5.40;1.02;;;9.60;99.90;;;;;;5058692;28;20073;-81
2022/02/21 01:32:09;;;;;;;4.40;0.80;;;9.60;99.90;;;;;;5061053;28;20071;-81
2022/02/21 01:34:35;;;;;;;7.32;1.02;;;9.50;99.90;;;;;;5064491;28;20044;-82
2022/02/21 01:37:01;;;;;;;5.07;0.77;;;9.50;99.90;;;;;;5055999;28;20112;-83
2022/02/21 01:39:27;;;;;;;5.45;0.93;;;9.50;99.90;;;;;;5054961;28;20064;-82
2022/02/21 01:41:52;;;;;;;2.83;0.57;;;9.50;99.90;;;;;;5056073;28;20382;-83
2022/02/21 01:44:18;;;;;;;3.53;0.60;;;9.50;99.90;;;;;;5055493;28;20032;-84
2022/02/21 01:46:44;;;;;;;4.07;0.95;;;9.50;99.90;;;;;;5056805;28;20037;-82
2022/02/21 01:49:13;;;;;;;3.58;0.80;;;9.50;99.90;;;;;;5054211;28;20462;-83
2022/02/21 01:51:39;;;;;;;6.63;0.88;;;9.50;99.90;;;;;;5053604;28;20462;-82
2022/02/21 01:54:07;;;;;;;3.60;0.65;;;9.50;99.90;;;;;;5053589;28;20517;-76
2022/02/21 01:56:35;;;;;;;2.10;0.80;;;9.50;99.90;;;;;;5053100;28;20427;-82
2022/02/21 01:59:00;;;;;;;2.40;0.60;;;9.50;99.90;;;;;;5053691;28;20373;-81
2022/02/21 02:01:26;;;;;;;5.30;1.27;;;9.50;99.90;;;;;;5053819;28;20025;-82
2022/02/21 02:03:52;;;;;;;1.23;0.77;;;9.60;99.90;;;;;;5053734;28;20395;-81
2022/02/21 02:06:19;;;;;;;4.47;0.73;;;9.60;99.90;;;;;;5052967;28;20083;-80
2022/02/21 02:08:44;;;;;;;2.70;0.60;;;9.60;99.90;;;;;;5052444;28;20032;-80
2022/02/21 02:11:12;;;;;;;2.70;0.63;;;9.60;99.90;;;;;;5054080;28;20021;-83
2022/02/21 02:13:38;;;;;;;3.97;1.02;;;9.60;99.90;;;;;;5051639;28;20035;-81
2022/02/21 02:16:04;;;;;;;0.93;0.35;;;9.60;99.90;;;;;;5053625;28;20033;-80
2022/02/21 02:18:30;;;;;;;1.60;0.50;;;9.50;99.90;;;;;;5053077;28;20061;-82
2022/02/21 02:20:55;;;;;;;1.50;0.57;;;9.50;99.90;;;;;;5053576;28;20370;-82
2022/02/21 02:23:21;;;;;;;2.85;0.50;;;9.50;99.90;;;;;;5050978;28;20108;-81
2022/02/21 02:25:47;;;;;;;2.67;0.47;;;9.50;99.90;;;;;;5054308;28;20028;-83
2022/02/21 02:28:13;;;;;;;1.38;0.47;;;9.60;99.90;;;;;;5053112;28;20021;-78
2022/02/21 02:30:39;;;;;;;2.75;0.50;;;9.50;99.90;;;;;;5052392;28;20032;-81
2022/02/21 02:33:04;;;;;;;2.67;0.55;;;9.50;99.90;;;;;;5053233;28;20111;-81
2022/02/21 02:35:32;;;;;;;1.13;0.47;;;9.50;99.90;;;;;;5052639;28;20041;-83
2022/02/21 02:37:59;;;;;;;2.13;0.63;;;9.40;99.90;;;;;;5053140;28;20017;-83
2022/02/21 02:40:25;;;;;;;2.90;0.55;;;9.40;99.90;;;;;;5052590;28;20029;-82
2022/02/21 02:42:51;;;;;;;2.63;0.40;;;9.30;99.90;;;;;;5054042;28;20423;-84
2022/02/21 02:45:17;;;;;;;2.10;0.50;;;9.30;99.90;;;;;;5053564;28;20131;-74
2022/02/21 02:47:42;;;;;;;2.83;0.75;;;9.20;99.90;;;;;;5053911;28;20025;-86
2022/02/21 02:50:08;;;;;;;1.13;0.32;;;9.10;99.90;;;;;;5054987;28;20473;-85
2022/02/21 02:52:33;;;;;;;2.05;0.50;;;8.90;99.90;;;;;;5059204;28;20033;-85
2022/02/21 02:54:59;;;;;;;2.97;0.60;;;8.80;99.90;;;;;;5067232;28;20033;-83
2022/02/21 02:57:25;;;;;;;3.70;0.47;;;8.70;99.90;;;;;;5075995;28;20039;-79
2022/02/21 02:59:51;;;;;;;0.95;0.30;;;8.70;99.90;;;;;;5068642;28;20025;-83
2022/02/21 03:02:17;;;;;;;4.63;0.88;;;8.70;99.90;;;;;;5062374;28;20025;-82
2022/02/21 03:04:42;;;;;;;4.40;0.55;;;8.70;99.90;;;;;;5054233;28;20043;-84
2022/02/21 03:07:08;;;;;;;3.83;0.60;;;8.70;99.90;;;;;;5052492;28;20028;-84
2022/02/21 03:09:33;;;;;;;1.05;0.32;;;8.70;99.90;;;;;;5052105;28;20097;-86
2022/02/21 03:11:59;;;;;;;2.30;0.57;;;8.80;99.90;;;;;;5052348;28;20078;-83
2022/02/21 03:14:26;;;;;;;3.92;0.50;;;8.80;99.90;;;;;;5052129;28;20041;-79
2022/02/21 03:16:51;;;;;;;2.88;0.50;;;8.90;99.90;;;;;;5055708;28;20035;-82
2022/02/21 03:19:24;;;;;;;3.72;0.47;;;9.00;99.90;;;;;;5051254;28;20025;-76
2022/02/21 03:21:50;;;;;;;1.55;0.30;;;9.00;99.90;;;;;;5051199;28;20036;-84
2022/02/21 03:24:16;;;;;;;1.67;0.40;;;9.10;99.90;;;;;;5051791;28;20474;-82
2022/02/21 03:26:41;;;;;;;2.33;0.40;;;9.20;99.90;;;;;;5048953;28;20028;-83
2022/02/21 03:29:07;;;;;;;2.13;0.30;;;9.30;99.90;;;;;;5051830;28;20056;-80
2022/02/21 03:31:33;;;;;;;2.10;0.85;;;9.30;99.90;;;;;;5051451;28;20028;-82
2022/02/21 03:33:58;;;;;;;2.35;0.40;;;9.30;99.90;;;;;;5051678;28;20021;-83
2022/02/21 03:36:24;;;;;;;1.40;0.30;;;9.30;99.90;;;;;;5051524;28;20063;-83
2022/02/21 03:38:49;;;;;;;1.42;0.30;;;9.30;99.90;;;;;;5051857;28;20021;-83
2022/02/21 03:41:16;;;;;;;0.98;0.30;;;9.30;99.90;;;;;;5051645;28;20363;-80
2022/02/21 03:43:42;;;;;;;2.08;0.20;;;9.00;99.90;;;;;;5049251;28;20024;-83
2022/02/21 03:46:08;;;;;;;2.30;0.55;;;7.40;99.90;;;;;;5051359;28;20096;-80
2022/02/21 03:48:34;;;;;;;4.32;0.30;;;5.90;99.90;;;;;;5050631;28;20037;-78
2022/02/21 03:51:00;;;;;;;3.05;0.55;;;4.40;99.90;;;;;;5051549;28;20057;-77
2022/02/21 03:53:25;;;;;;;6.28;0.50;;;3.70;99.90;;;;;;5049610;28;20430;-76
2022/02/21 03:55:51;;;;;;;1.75;0.30;;;3.20;99.90;;;;;;5051008;28;20029;-79
2022/02/21 03:58:17;;;;;;;1.90;0.30;;;3.10;99.90;;;;;;5051448;28;20061;-78
2022/02/21 04:00:43;;;;;;;0.95;0.25;;;3.00;99.90;;;;;;5051263;28;20040;-74
2022/02/21 04:03:08;;;;;;;1.88;0.20;;;3.00;99.90;;;;;;5051077;28;20130;-78
2022/02/21 04:05:34;;;;;;;3.03;0.20;;;3.00;99.90;;;;;;5050317;28;20021;-78
2022/02/21 04:07:59;;;;;;;3.70;0.40;;;3.00;99.90;;;;;;5051034;28;20130;-77
2022/02/21 04:10:25;;;;;;;2.78;0.40;;;2.90;99.90;;;;;;5050256;28;20100;-76
2022/02/21 04:12:51;;;;;;;1.63;0.35;;;2.90;99.90;;;;;;5050645;28;20085;-77
2022/02/21 04:15:16;;;;;;;2.78;0.22;;;2.90;99.90;;;;;;5050911;28;20044;-79
2022/02/21 04:17:47;;;;;;;2.25;0.47;;;3.00;99.90;;;;;;5048323;28;20051;-79
2022/02/21 04:20:16;;;;;;;1.65;0.57;;;3.00;99.90;;;;;;5051337;28;20031;-76
2022/02/21 04:22:42;;;;;;;4.05;0.52;;;2.90;99.90;;;;;;5051668;28;20082;-76
2022/02/21 04:25:10;;;;;;;2.53;0.35;;;2.90;99.90;;;;;;5050807;28;20033;-79
2022/02/21 04:27:43;;;;;;;2.47;0.40;;;2.80;99.90;;;;;;5051698;28;20035;-78
2022/02/21 04:30:09;;;;;;;2.47;0.50;;;2.80;99.90;;;;;;5052179;28;20036;-78
2022/02/21 04:32:37;;;;;;;2.88;0.80;;;2.70;99.90;;;;;;5051590;28;20025;-78
2022/02/21 04:35:03;;;;;;;3.53;0.70;;;2.70;99.90;;;;;;5050622;28;20537;-77
2022/02/21 04:37:29;;;;;;;4.07;0.43;;;2.80;99.90;;;;;;5051608;28;20112;-77
2022/02/21 04:39:55;;;;;;;4.38;0.77;;;2.80;99.90;;;;;;5051790;28;20111;-77
2022/02/21 04:42:20;;;;;;;6.43;0.75;;;2.90;99.90;;;;;;5051513;28;20028;-76
2022/02/21 04:44:46;;;;;;;8.63;0.93;;;2.90;99.90;;;;;;5052061;28;20041;-78
2022/02/21 04:47:11;;;;;;;1.83;0.65;;;2.90;99.90;;;;;;5052249;28;20032;-80
2022/02/21 04:49:37;;;;;;;5.53;0.98;;;2.90;99.90;;;;;;5051081;28;20028;-78
2022/02/21 04:52:03;;;;;;;8.02;1.42;;;2.90;99.90;;;;;;5051948;28;20462;-78
2022/02/21 04:54:28;;;;;;;6.10;0.90;;;2.90;99.90;;;;;;5051443;28;20506;-78
2022/02/21 04:56:54;;;;;;;5.63;1.02;;;2.90;99.90;;;;;;5051451;28;20052;-77
2022/02/21 04:59:20;;;;;;;7.47;1.10;;;2.90;99.90;;;;;;5051673;28;20393;-79
2022/02/21 05:01:45;;;;;;;5.78;0.90;;;2.90;99.90;;;;;;5052192;28;20375;-82
2022/02/21 05:04:11;;;;;;;5.75;0.82;;;2.80;99.90;;;;;;5052181;28;20037;-81
2022/02/21 05:06:37;;;;;;;3.85;0.88;;;2.90;99.90;;;;;;5051539;28;20076;-77
2022/02/21 05:09:03;;;;;;;7.18;1.30;;;2.90;99.90;;;;;;5054832;28;20029;-79
2022/02/21 05:11:29;;;;;;;8.52;1.48;;;3.00;99.90;;;;;;5053018;28;20033;-78
2022/02/21 05:13:54;;;;;;;6.10;1.00;;;3.00;99.90;;;;;;5052294;28;20112;-84
2022/02/21 05:16:20;;;;;;;9.07;1.05;;;3.00;99.90;;;;;;5051878;28;20056;-78
2022/02/21 05:18:46;;;;;;;7.28;1.15;;;2.90;99.90;;;;;;5052870;28;20036;-83
2022/02/21 05:21:11;;;;;;;12.75;1.30;;;3.00;99.90;;;;;;5053197;28;20029;-82
2022/02/21 05:23:37;;;;;;;12.50;1.92;;;3.10;99.90;;;;;;5059818;28;20092;-77
2022/02/21 05:26:02;;;;;;;12.27;1.27;;;3.10;99.90;;;;;;5074113;28;20016;-77
2022/02/21 05:28:28;;;;;;;9.52;1.15;;;3.30;99.90;;;;;;5068931;28;20040;-77
2022/02/21 05:30:54;;;;;;;5.15;0.88;;;3.40;99.90;;;;;;5058958;28;20040;-82
2022/02/21 05:33:20;;;;;;;7.68;1.38;;;3.40;99.90;;;;;;5055659;28;20432;-74
2022/02/21 05:35:46;;;;;;;8.75;1.10;;;3.40;99.90;;;;;;5056339;28;20029;-85
2022/02/21 05:38:11;;;;;;;15.40;2.67;;;3.30;99.90;;;;;;5055742;28;20454;-87
2022/02/21 05:40:37;;;;;;;9.98;1.77;;;3.50;99.90;;;;;;5054815;28;20060;-87
2022/02/21 05:43:03;;;;;;;9.25;1.60;;;3.40;99.90;;;;;;5055634;28;20060;-86
2022/02/21 05:45:29;;;;;;;11.45;2.22;;;3.60;99.90;;;;;;5055038;28;20047;-86
2022/02/21 05:47:54;;;;;;;8.50;1.70;;;3.70;99.90;;;;;;5055198;28;20536;-87
2022/02/21 05:50:20;;;;;;;13.80;1.45;;;3.70;99.90;;;;;;5055317;28;20477;-84
2022/02/21 05:52:46;;;;;;;13.55;1.55;;;3.70;99.90;;;;;;5055130;28;20351;-83
2022/02/21 05:55:12;;;;;;;13.82;1.80;;;3.80;99.90;;;;;;5055013;28;20029;-82
2022/02/21 05:57:38;;;;;;;12.45;1.90;;;3.90;99.90;;;;;;5054304;28;20135;-84
2022/02/21 06:00:06;;;;;;;10.43;1.63;;;3.80;99.90;;;;;;5055024;28;20033;-83
2022/02/21 06:02:31;;;;;;;14.07;3.92;;;3.90;99.90;;;;;;5053815;28;20052;-82
2022/02/21 06:04:59;;;;;;;14.77;2.00;;;4.10;99.90;;;;;;5054612;28;20125;-83
2022/02/21 06:07:24;;;;;;;8.00;1.35;;;4.10;99.90;;;;;;5053730;28;20044;-76
2022/02/21 06:09:51;;;;;;;10.57;2.03;;;4.10;99.90;;;;;;5054033;28;20462;-83
2022/02/21 06:12:18;;;;;;;7.88;1.73;;;4.10;99.90;;;;;;5054458;28;20028;-83
2022/02/21 06:14:44;;;;;;;12.15;1.65;;;4.10;99.90;;;;;;5052366;28;20034;-83
2022/02/21 06:17:09;;;;;;;8.45;1.90;;;4.10;99.90;;;;;;5055473;28;20074;-87
2022/02/21 06:19:35;;;;;;;11.65;2.22;;;4.10;99.90;;;;;;5062038;28;20039;-86
2022/02/21 06:22:02;;;;;;;14.90;2.53;;;4.10;99.90;;;;;;5054131;28;20031;-82
2022/02/21 06:24:28;;;;;;;11.80;1.92;;;4.10;99.90;;;;;;5054812;28;20108;-84
2022/02/21 06:26:53;;;;;;;12.60;2.03;;;4.10;99.90;;;;;;5055741;28;20485;-84
2022/02/21 06:29:20;;;;;;;9.63;2.10;;;4.20;99.90;;;;;;5054276;28;20056;-84
2022/02/21 06:31:46;;;;;;;14.52;1.77;;;4.20;99.90;;;;;;5053170;28;20021;-84
2022/02/21 06:34:12;;;;;;;8.52;1.70;;;4.20;99.90;;;;;;5052227;28;20519;-83
2022/02/21 06:36:38;;;;;;;10.25;1.70;;;4.10;99.90;;;;;;5053579;28;20025;-84
2022/02/21 06:39:03;;;;;;;14.00;1.52;;;4.10;99.90;;;;;;5054649;28;20028;-81
2022/02/21 06:41:29;;;;;;;12.32;1.85;;;4.10;99.90;;;;;;5052763;28;20462;-86
2022/02/21 06:43:55;;;;;;;18.70;1.95;;;4.20;99.90;;;;;;5054857;28;20033;-84
2022/02/21 06:46:20;;;;;;;11.68;2.22;;;4.20;99.90;;;;;;5055958;28;20029;-85
2022/02/21 06:48:46;;;;;;;8.93;1.67;;;4.20;99.90;;;;;;5054381;28;20033;-85
2022/02/21 06:51:12;;;;;;;9.38;2.33;;;4.20;99.90;;;;;;5054827;28;20116;-82
2022/02/21 06:53:37;;;;;;;7.65;1.70;;;4.30;99.90;;;;;;5052912;28;20458;-75
2022/02/21 06:56:03;;;;;;;15.98;2.53;;;4.20;99.90;;;;;;5053356;28;20368;-73
2022/02/21 06:58:29;;;;;;;10.80;2.47;;;4.20;99.90;;;;;;5053287;28;20494;-74
2022/02/21 07:00:54;;;;;;;9.32;1.40;;;4.30;99.90;;;;;;5053351;28;20021;-75
2022/02/21 07:03:20;;;;;;;8.80;1.73;;;4.30;99.90;;;;;;5053365;28;20064;-81
2022/02/21 07:05:46;;;;;;;13.85;1.92;;;4.30;99.90;;;;;;5052992;28;20029;-74
2022/02/21 07:08:12;;;;;;;8.57;1.80;;;4.40;99.90;;;;;;5049746;28;20029;-81
2022/02/21 07:10:38;;;;;;;12.40;1.95;;;4.30;99.90;;;;;;5054535;28;20086;-80
2022/02/21 07:13:04;;;;;;;9.30;1.90;;;4.40;99.90;;;;;;5053737;28;20453;-79
2022/02/21 07:15:30;;;;;;;8.85;1.90;;;4.30;99.90;;;;;;5052379;28;20040;-77
2022/02/21 07:17:57;;;;;;;14.95;2.67;;;4.20;99.90;;;;;;5052878;28;20037;-81
2022/02/21 07:20:25;;;;;;;8.80;1.90;;;4.30;99.90;;;;;;5052596;28;20485;-81
2022/02/21 07:22:51;;;;;;;18.17;3.53;;;4.20;99.90;;;;;;5052663;28;20058;-78
2022/02/21 07:25:17;;;;;;;17.02;2.25;;;4.30;99.90;;;;;;5052535;28;20482;-74
2022/02/21 07:27:48;;;;;;;7.30;1.60;;;4.20;99.90;;;;;;5051623;28;20036;-75
2022/02/21 07:30:16;;;;;;;9.05;1.63;;;4.20;99.90;;;;;;5052290;28;20164;-68
2022/02/21 07:32:43;;;;;;;19.30;2.17;;;4.30;99.90;;;;;;5052076;28;20048;-73
2022/02/21 07:35:09;;;;;;;12.73;1.90;;;4.50;99.90;;;;;;5052274;28;20033;-73
2022/02/21 07:37:35;;;;;;;10.63;2.13;;;4.40;99.90;;;;;;5052810;28;20035;-81
2022/02/21 07:40:01;;;;;;;15.18;2.78;;;4.50;99.90;;;;;;5072219;28;20024;-78
2022/02/21 07:42:27;;;;;;;17.92;2.40;;;4.60;99.90;;;;;;5072542;28;20017;-82
2022/02/21 07:44:52;;;;;;;15.75;1.77;;;4.70;99.90;;;;;;5052967;28;20083;-82
2022/02/21 07:47:19;;;;;;;15.02;2.25;;;4.60;99.90;;;;;;5053760;28;20103;-82
2022/02/21 07:49:45;;;;;;;20.45;1.98;;;4.70;99.90;;;;;;5053130;28;20025;-81
2022/02/21 07:52:11;;;;;;;15.65;2.03;;;4.80;99.90;;;;;;5058238;28;20021;-81
2022/02/21 07:54:37;;;;;;;15.20;2.40;;;4.80;99.90;;;;;;5065838;28;20029;-79
2022/02/21 07:57:06;;;;;;;13.20;2.33;;;4.90;99.90;;;;;;5075482;28;20040;-81
2022/02/21 07:59:32;;;;;;;18.17;2.53;;;4.90;99.90;;;;;;5058275;28;20059;-81
2022/02/21 08:01:59;;;;;;;13.93;2.33;;;4.90;99.90;;;;;;5056044;28;20033;-82
2022/02/21 08:04:25;;;;;;;9.88;1.90;;;5.00;99.90;;;;;;5053575;28;20160;-82
2022/02/21 08:06:51;;;;;;;13.70;2.28;;;5.00;99.90;;;;;;5052772;28;20025;-82
2022/02/21 08:09:18;;;;;;;17.45;2.75;;;5.20;99.90;;;;;;5051889;28;20021;-81
2022/02/21 08:11:44;;;;;;;14.77;2.55;;;5.20;99.90;;;;;;5051337;28;20096;-81
2022/02/21 08:14:10;;;;;;;20.33;3.13;;;5.30;99.90;;;;;;5053015;28;20410;-82
2022/02/21 08:16:35;;;;;;;14.27;2.45;;;5.40;99.90;;;;;;5055438;28;20142;-82
2022/02/21 08:19:01;;;;;;;15.98;2.40;;;5.50;99.90;;;;;;5052485;28;20141;-82
2022/02/21 08:21:27;;;;;;;20.63;2.20;;;5.60;99.90;;;;;;5052160;28;20028;-78
2022/02/21 08:23:52;;;;;;;13.98;2.00;;;5.60;99.90;;;;;;5052151;28;20028;-80
2022/02/21 08:26:18;;;;;;;14.77;2.03;;;5.80;99.90;;;;;;5051675;28;20021;-82
2022/02/21 08:28:44;;;;;;;14.63;2.28;;;5.90;99.90;;;;;;5052045;28;20021;-82
2022/02/21 08:31:10;;;;;;;16.55;2.10;;;6.10;99.90;;;;;;5052028;28;20362;-82
2022/02/21 08:33:35;;;;;;;15.05;2.10;;;6.20;99.90;;;;;;5052568;28;20036;-83
2022/02/21 08:36:01;;;;;;;18.10;4.80;;;6.30;99.90;;;;;;5053555;28;20025;-77
2022/02/21 08:38:27;;;;;;;13.65;2.65;;;6.40;99.40;;;;;;5054780;28;20043;-72
2022/02/21 08:40:52;;;;;;;16.92;2.42;;;6.40;99.20;;;;;;5058423;28;20044;-81
2022/02/21 08:43:18;;;;;;;12.82;2.60;;;6.30;99.40;;;;;;5048355;28;20025;-82
2022/02/21 08:45:43;;;;;;;16.02;2.17;;;6.40;99.70;;;;;;5053739;28;20048;-83
2022/02/21 08:48:09;;;;;;;10.80;2.45;;;6.50;98.10;;;;;;5053520;28;20024;-81
2022/02/21 08:50:35;;;;;;;14.98;2.97;;;6.60;97.90;;;;;;5046710;28;20038;-81
2022/02/21 08:53:01;;;;;;;15.15;2.10;;;6.70;98.20;;;;;;5049130;28;20026;-81
2022/02/21 08:55:27;;;;;;;15.73;2.50;;;6.80;96.70;;;;;;5043983;28;20041;-81
2022/02/21 08:57:53;;;;;;;12.70;1.90;;;6.80;97.50;;;;;;5060681;28;20045;-81
2022/02/21 09:00:18;;;;;;;12.50;2.33;;;7.00;97.60;;;;;;5054746;28;20108;-83
2022/02/21 09:02:45;;;;;;;16.48;2.25;;;7.20;97.70;;;;;;5054805;28;20025;-82
2022/02/21 09:05:12;;;;;;;13.48;2.58;;;7.40;96.80;;;;;;5055479;28;20036;-81
2022/02/21 09:07:38;;;;;;;16.10;2.40;;;7.50;96.30;;;;;;5054623;28;20108;-82
2022/02/21 09:10:05;;;;;;;19.05;2.88;;;7.60;95.80;;;;;;5057804;28;20106;-82
2022/02/21 09:12:31;;;;;;;14.88;2.75;;;7.70;95.20;;;;;;5054846;28;20477;-72
2022/02/21 09:15:00;;;;;;;15.85;2.08;;;7.80;94.30;;;;;;5057452;28;20371;-82
2022/02/21 09:17:25;;;;;;;17.55;2.70;;;7.90;95.00;;;;;;5056560;28;20045;-82
2022/02/21 09:19:51;;;;;;;14.88;2.38;;;7.80;93.40;;;;;;5055966;28;20389;-82
2022/02/21 09:22:17;;;;;;;13.25;2.45;;;7.60;94.40;;;;;;5054240;28;20483;-81
2022/02/21 09:24:43;;;;;;;11.90;2.05;;;7.60;94.80;;;;;;5054247;28;20064;-82
2022/02/21 09:27:09;;;;;;;11.82;1.95;;;7.70;94.50;;;;;;5055599;28;20469;-82
2022/02/21 09:29:35;;;;;;;13.90;1.95;;;7.80;94.50;;;;;;5054413;28;20382;-81
2022/02/21 09:32:01;;;;;;;13.05;2.10;;;7.80;93.60;;;;;;5055091;28;20036;-81
2022/02/21 09:34:26;;;;;;;9.75;1.90;;;7.80;93.30;;;;;;5053486;28;20436;-80
2022/02/21 09:36:52;;;;;;;13.77;2.28;;;7.70;93.90;;;;;;5054065;28;20048;-82
2022/02/21 09:39:18;;;;;;;20.73;3.42;;;7.80;94.20;;;;;;5054605;28;20036;-82
2022/02/21 09:41:44;;;;;;;13.27;2.08;;;7.80;94.60;;;;;;5054108;28;20075;-82
2022/02/21 09:44:10;;;;;;;11.07;2.15;;;7.70;93.80;;;;;;5054693;28;20029;-81
2022/02/21 09:46:38;;;;;;;12.07;1.50;;;7.60;95.20;;;;;;5053219;28;20044;-81
2022/02/21 09:49:07;;;;;;;12.60;1.73;;;7.70;94.30;;;;;;5054833;28;20390;-81
2022/02/21 09:51:33;;;;;;;10.07;1.75;;;7.60;93.50;;;;;;5053204;28;20108;-80
2022/02/21 09:53:59;;;;;;;12.02;1.67;;;7.50;93.40;;;;;;5054401;28;20108;-81
2022/02/21 09:56:25;;;;;;;10.00;1.73;;;7.50;94.40;;;;;;5053817;28;20440;-80
2022/02/21 09:58:55;;;;;;;9.07;1.60;;;7.40;93.90;;;;;;5055275;28;20044;-79
2022/02/21 10:01:27;;;;;;;8.57;1.40;;;7.40;91.60;;;;;;5054767;28;20029;-82
2022/02/21 10:03:57;;;;;;;13.27;2.03;;;7.50;91.30;;;;;;5053496;28;20108;-82
2022/02/21 10:06:25;;;;;;;;;;;7.60;91.60;;;;;;5055341;28;20037;-81
2022/02/21 10:09:03;;;;;;;10.43;2.03;;;7.90;91.20;;;;;;5060251;28;20486;-83
2022/02/21 10:11:32;;;;;;;12.68;2.13;;;8.00;88.40;;;;;;5054561;28;20029;-75
2022/02/21 10:14:01;;;;;;;9.35;2.10;;;8.00;89.40;;;;;;5054356;28;20052;-83
2022/02/21 10:16:45;;;;;;;7.90;1.60;;;8.00;87.50;;;;;;5055161;28;20426;-74
2022/02/21 10:19:38;;;;;;;9.93;2.05;;;8.00;87.20;;;;;;5057103;28;20119;-83
2022/02/21 10:22:10;;;;;;;10.30;2.20;;;8.00;88.70;;;;;;5066608;28;20009;-81
2022/02/21 10:24:42;;;;;;;8.75;2.08;;;7.90;88.60;;;;;;5075474;28;20100;-82
2022/02/21 10:27:13;;;;;;;15.70;2.15;;;7.90;89.50;;;;;;5059160;28;20424;-83
2022/02/21 10:30:02;;;;;;;10.15;2.10;;;8.00;90.00;;;;;;5055188;28;20032;-83
2022/02/21 10:32:42;;;;;;;16.60;2.55;;;8.00;90.10;;;;;;5054592;28;20428;-74
2022/02/21 10:35:13;;;;;;;;;;;8.10;86.90;;;;;;5053929;28;20525;-83
2022/02/21 10:37:50;;;;;;;10.07;2.38;;;8.00;86.50;;;;;;5051479;28;19904;-81
2022/02/21 10:40:35;;;;;;;9.68;1.90;;;8.00;86.90;;;;;;5050669;28;20078;-84
2022/02/21 10:43:05;;;;;;;16.63;2.88;;;8.00;83.00;;;;;;5053963;28;20021;-83
2022/02/21 10:45:32;;;;;;;9.27;2.10;;;8.00;83.10;;;;;;5051693;28;20093;-75
2022/02/21 10:48:00;;;;;;;9.85;2.15;;;8.00;83.50;;;;;;5053457;28;20421;-81
2022/02/21 10:50:28;;;;;;;10.52;1.77;;;8.00;83.30;;;;;;5053331;28;20029;-80
2022/02/21 10:52:54;;;;;;;8.82;1.83;;;8.10;82.70;;;;;;5053463;28;20033;-83
2022/02/21 10:55:20;;;;;;;11.07;2.10;;;8.10;82.10;;;;;;5053549;28;20445;-82
2022/02/21 10:57:47;;;;;;;10.43;1.88;;;8.10;84.00;;;;;;5052508;28;20123;-82
2022/02/21 11:00:14;;;;;;;8.60;1.80;;;8.00;81.20;;;;;;5054644;28;20048;-81
2022/02/21 11:02:41;;;;;;;9.80;1.70;;;8.00;80.90;;;;;;5072656;28;20419;-83
2022/02/21 11:05:09;;;;;;;9.57;2.25;;;8.00;78.50;;;;;;5059171;28;20029;-82
2022/02/21 11:07:41;;;;;;;5.03;1.35;;;8.10;77.70;;;;;;5060231;28;20051;-77
2022/02/21 11:10:08;;;;;;;7.20;1.58;;;8.10;77.40;;;;;;5063349;28;20096;-81
2022/02/21 11:12:37;;;;;;;7.35;1.38;;;8.20;75.10;;;;;;5060599;28;20020;-80
2022/02/21 11:15:04;;;;;;;10.05;1.60;;;8.20;74.80;;;;;;5056495;28;20039;-81
2022/02/21 11:17:30;;;;;;;8.02;1.55;;;8.10;75.50;;;;;;5054441;28;20041;-74
2022/02/21 11:19:57;;;;;;;7.15;1.50;;;8.30;74.30;;;;;;5053672;28;20021;-82
2022/02/21 11:22:23;;;;;;;6.10;1.50;;;8.40;74.50;;;;;;5054007;28;20031;-82
2022/02/21 11:24:52;;;;;;;7.63;1.42;;;8.30;73.60;;;;;;5052250;28;20036;-82
2022/02/21 11:27:35;;;;;;;7.47;1.55;;;8.10;75.60;;;;;;5053051;28;20090;-76
2022/02/21 11:30:16;;;;;;;8.75;1.70;;;8.10;77.60;;;;;;5052273;28;20072;-81
2022/02/21 11:33:04;;;;;;;7.40;1.38;;;8.10;78.80;;;;;;5052371;28;20175;-84
2022/02/21 11:35:34;;;;;;;6.70;1.45;;;8.20;80.40;;;;;;5052565;28;20490;-74
2022/02/21 11:38:20;;;;;;;10.77;1.33;;;8.20;82.90;;;;;;5053708;28;20051;-80
2022/02/21 11:40:57;;;;;;;12.23;1.90;;;8.30;85.60;;;;;;5043677;28;20108;-81
2022/02/21 11:43:30;;;;;;;6.80;1.42;;;8.10;91.90;;;;;;5048280;28;20033;-81
2022/02/21 11:45:57;;;;;;;14.20;2.28;;;7.80;95.40;;;;;;5053926;28;20098;-81
2022/02/21 11:48:23;;;;;;;8.13;2.10;;;7.50;99.90;;;;;;5052486;28;20033;-81
2022/02/21 11:51:00;;;;;;;9.45;1.80;;;7.20;99.90;;;;;;5052076;28;20158;-81
2022/02/21 11:53:29;;;;;;;11.75;2.28;;;7.10;99.90;;;;;;5053038;28;20035;-80
2022/02/21 11:55:56;;;;;;;9.52;1.65;;;7.10;99.90;;;;;;5051914;28;20037;-81
2022/02/21 11:58:26;;;;;;;7.13;1.30;;;7.20;99.90;;;;;;5052349;28;20049;-80
2022/02/21 12:00:54;;;;;;;11.18;1.63;;;7.40;99.90;;;;;;5052046;28;20028;-82
2022/02/21 12:03:19;;;;;;;6.82;1.58;;;7.80;94.80;;;;;;5052359;28;20029;-82
2022/02/21 12:05:47;;;;;;;6.25;1.42;;;8.00;94.10;;;;;;5031530;28;20091;-73
2022/02/21 12:08:31;;;;;;;8.75;1.48;;;8.30;91.80;;;;;;5032817;28;20470;-80
2022/02/21 12:11:03;;;;;;;9.07;1.70;;;8.50;90.70;;;;;;5047757;28;20116;-74
2022/02/21 12:13:33;;;;;;;7.20;1.55;;;8.70;86.30;;;;;;5051263;28;20051;-74
2022/02/21 12:15:59;;;;;;;5.93;1.27;;;8.80;82.70;;;;;;5053171;28;20336;-82
2022/02/21 12:18:29;;;;;;;7.68;1.25;;;8.90;82.90;;;;;;5052496;28;20044;-80
2022/02/21 12:21:14;;;;;;;5.97;1.40;;;8.90;79.30;;;;;;5052358;28;20024;-82
2022/02/21 12:24:00;;;;;;;8.70;1.88;;;9.10;79.70;;;;;;5050136;28;20056;-80
2022/02/21 12:26:32;;;;;;;5.60;1.30;;;9.30;75.60;;;;;;5052418;28;20482;-81
2022/02/21 12:29:22;;;;;;;8.27;1.73;;;9.40;73.60;;;;;;5051861;28;20837;-77
2022/02/21 12:31:54;;;;;;;;;;;9.50;70.50;;;;;;5051726;28;20063;-81
2022/02/21 12:34:30;;;;;;;6.00;1.30;;;9.30;69.10;;;;;;5056209;28;19906;-81
2022/02/21 12:37:04;;;;;;;8.90;1.55;;;9.00;68.00;;;;;;5053598;28;20108;-80
2022/02/21 12:39:35;;;;;;;7.32;1.08;;;8.80;68.30;;;;;;5059218;28;20029;-72
2022/02/21 12:42:02;;;;;;;7.72;1.23;;;8.70;69.00;;;;;;5075750;28;20029;-81
2022/02/21 12:44:28;;;;;;;9.75;1.40;;;8.70;69.50;;;;;;5057159;28;20060;-80
2022/02/21 12:47:00;;;;;;;7.13;1.55;;;8.60;69.30;;;;;;5053923;28;20454;-81
2022/02/21 12:49:35;;;;;;;8.00;1.85;;;8.50;69.10;;;;;;5052490;28;20490;-82
2022/02/21 12:52:07;;;;;;;6.40;1.45;;;8.40;69.60;;;;;;5051935;28;20025;-81
2022/02/21 12:54:34;;;;;;;8.00;1.65;;;8.30;70.20;;;;;;5051195;28;20040;-75